Time;durP1;ratioP1;P1;durP2;ratioP2;P2;SDS_P1;SDS_P2;PMS_P1;PMS_P2;Temp;Humidity;BMP_temperature;BMP_pressure;BME280_temperature;BME280_humidity;BME280_pressure;Samples;Min_cycle;Max_cycle;Signal;HPM_P1;HPM_P2
2022/11/30 00:00:11;;;;;;;64.50;25.55;;;8.10;99.90;;;;;;5120638;27;20087;-85
2022/11/30 00:02:36;;;;;;;60.20;25.40;;;7.00;99.90;;;;;;5086350;27;20035;-84
2022/11/30 00:05:02;;;;;;;65.45;26.67;;;7.70;99.90;;;;;;5086592;27;20069;-84
2022/11/30 00:07:28;;;;;;;62.20;27.00;;;7.00;99.90;;;;;;5120659;27;20372;-84
2022/11/30 00:09:54;;;;;;;64.50;27.75;;;7.00;99.90;;;;;;5102925;27;20045;-85
2022/11/30 00:12:19;;;;;;;64.78;23.60;;;7.00;99.90;;;;;;5119943;27;20053;-85
2022/11/30 00:14:45;;;;;;;66.75;28.05;;;7.10;99.90;;;;;;5119736;27;20110;-85
2022/11/30 00:17:10;;;;;;;61.45;24.33;;;7.00;99.90;;;;;;5119644;27;20050;-85
2022/11/30 00:19:36;;;;;;;63.22;27.17;;;7.20;99.90;;;;;;5136830;27;20039;-85
2022/11/30 00:22:02;;;;;;;63.80;24.77;;;7.10;99.90;;;;;;5136559;27;20051;-84
2022/11/30 00:24:27;;;;;;;67.78;26.80;;;7.20;99.90;;;;;;5120368;27;20043;-83
2022/11/30 00:26:53;;;;;;;67.05;26.60;;;8.10;99.90;;;;;;5119423;27;20074;-84
2022/11/30 00:29:18;;;;;;;66.18;26.10;;;7.00;99.90;;;;;;5137127;27;20129;-84
2022/11/30 00:31:45;;;;;;;68.68;26.45;;;7.30;99.90;;;;;;5103328;27;20069;-83
2022/11/30 00:34:10;;;;;;;71.05;27.08;;;6.90;99.90;;;;;;5119726;27;20051;-83
2022/11/30 00:36:36;;;;;;;73.32;27.27;;;7.00;99.90;;;;;;5102511;27;20053;-87
2022/11/30 00:39:02;;;;;;;74.90;26.52;;;7.10;99.90;;;;;;5137136;27;20121;-84
2022/11/30 00:41:27;;;;;;;74.85;29.17;;;6.90;99.90;;;;;;5119529;27;20431;-83
2022/11/30 00:43:53;;;;;;;70.07;26.02;;;6.90;99.90;;;;;;5119471;27;20520;-85
2022/11/30 00:46:19;;;;;;;75.15;29.10;;;7.10;99.90;;;;;;5136646;27;20039;-84
2022/11/30 00:48:44;;;;;;;73.32;29.35;;;6.90;99.90;;;;;;5118523;27;20051;-84
2022/11/30 00:51:11;;;;;;;73.88;29.38;;;6.90;99.90;;;;;;5102441;27;20047;-84
2022/11/30 00:53:37;;;;;;;69.18;26.05;;;6.90;99.90;;;;;;5085789;27;20539;-85
2022/11/30 00:56:02;;;;;;;73.00;27.85;;;7.90;99.90;;;;;;5136126;27;20039;-84
2022/11/30 00:58:28;;;;;;;71.63;28.88;;;6.90;99.90;;;;;;5119146;27;20045;-84
2022/11/30 01:00:54;;;;;;;62.97;26.33;;;6.90;99.90;;;;;;5102370;27;20106;-85
2022/11/30 01:03:19;;;;;;;75.18;28.90;;;7.00;99.90;;;;;;5136496;27;20124;-85
2022/11/30 01:05:45;;;;;;;76.38;29.20;;;7.00;99.90;;;;;;5136138;27;20043;-85
2022/11/30 01:08:11;;;;;;;64.93;26.45;;;6.90;99.90;;;;;;5119332;27;20073;-85
2022/11/30 01:10:38;;;;;;;69.55;28.35;;;7.50;99.90;;;;;;5085136;27;20050;-85
2022/11/30 01:13:04;;;;;;;69.50;29.52;;;7.40;99.90;;;;;;5101789;27;20511;-85
2022/11/30 01:15:29;;;;;;;74.90;30.92;;;7.10;99.90;;;;;;5119241;27;20070;-85
2022/11/30 01:17:55;;;;;;;74.18;29.38;;;6.60;99.90;;;;;;5118482;27;20043;-84
2022/11/30 01:20:21;;;;;;;75.68;30.10;;;6.50;99.90;;;;;;5119318;27;20043;-85
2022/11/30 01:22:46;;;;;;;81.00;30.98;;;6.50;99.90;;;;;;5101643;27;20031;-85
2022/11/30 01:25:12;;;;;;;74.63;30.00;;;6.50;99.90;;;;;;5101964;27;20057;-85
2022/11/30 01:27:38;;;;;;;74.07;30.65;;;6.40;99.90;;;;;;5118898;27;20050;-85
2022/11/30 01:30:04;;;;;;;71.50;29.02;;;6.40;99.90;;;;;;5118423;27;20081;-84
2022/11/30 01:32:30;;;;;;;72.53;30.13;;;6.40;99.90;;;;;;5135658;27;20043;-85
2022/11/30 01:34:55;;;;;;;70.45;29.40;;;7.30;99.90;;;;;;5118553;27;20095;-83
2022/11/30 01:37:21;;;;;;;81.50;30.85;;;6.50;99.90;;;;;;5135660;27;20042;-85
2022/11/30 01:39:47;;;;;;;74.03;30.02;;;6.50;99.90;;;;;;5084645;27;20054;-85
2022/11/30 01:42:17;;;;;;;66.30;29.23;;;6.50;99.90;;;;;;5101189;27;20055;-85
2022/11/30 01:44:48;;;;;;;71.57;30.30;;;6.50;99.90;;;;;;5118984;27;20038;-85
2022/11/30 01:47:13;;;;;;;72.55;31.05;;;6.40;99.90;;;;;;5118551;27;20063;-84
2022/11/30 01:49:54;;;;;;;69.75;30.10;;;6.50;99.90;;;;;;5100999;27;20583;-84
2022/11/30 01:52:24;;;;;;;65.72;29.20;;;6.40;99.90;;;;;;5101055;27;20077;-84
2022/11/30 01:54:55;;;;;;;69.32;30.00;;;5.30;99.90;;;;;;5101843;27;20084;-84
2022/11/30 01:57:25;;;;;;;72.20;30.23;;;6.90;99.90;;;;;;5101626;27;20039;-84
2022/11/30 01:59:52;;;;;;;65.18;29.52;;;6.40;99.90;;;;;;5118365;27;20047;-83
2022/11/30 02:02:19;;;;;;;65.35;30.15;;;6.60;99.90;;;;;;5118682;27;20051;-84
2022/11/30 02:04:44;;;;;;;64.32;28.73;;;6.60;99.90;;;;;;5118343;27;20034;-83
2022/11/30 02:07:10;;;;;;;65.80;29.70;;;6.50;99.90;;;;;;5117972;27;20058;-85
2022/11/30 02:09:42;;;;;;;69.18;28.73;;;6.40;99.90;;;;;;5101227;27;20046;-84
2022/11/30 02:12:07;;;;;;;65.65;29.02;;;6.40;99.90;;;;;;5118636;27;20538;-85
2022/11/30 02:14:45;;;;;;;64.15;29.30;;;6.40;99.90;;;;;;5101476;27;20133;-85
2022/11/30 02:17:52;;;;;;;63.42;26.90;;;6.90;99.90;;;;;;5100800;27;20125;-83
2022/11/30 02:20:29;;;;;;;58.50;28.15;;;6.40;99.90;;;;;;5060725;27;20053;-84
2022/11/30 02:23:16;;;;;;;63.00;28.88;;;6.40;99.90;;;;;;5101713;27;20093;-85
2022/11/30 02:25:56;;;;;;;64.95;27.85;;;6.40;99.90;;;;;;5118086;27;20047;-84
2022/11/30 02:28:43;;;;;;;62.22;29.98;;;6.40;99.90;;;;;;5086163;27;20451;-85
2022/11/30 02:31:11;;;;;;;62.42;28.83;;;6.40;99.90;;;;;;5134478;27;20034;-84
2022/11/30 02:33:37;;;;;;;64.10;30.10;;;6.70;99.90;;;;;;5101041;27;20043;-83
2022/11/30 02:36:03;;;;;;;62.88;28.65;;;6.50;99.90;;;;;;5083733;27;20091;-84
2022/11/30 02:38:28;;;;;;;65.40;29.17;;;6.50;99.90;;;;;;5100257;27;20107;-84
2022/11/30 02:40:54;;;;;;;60.80;28.67;;;6.50;99.90;;;;;;5100412;27;20050;-84
2022/11/30 02:43:21;;;;;;;62.40;28.70;;;6.50;99.90;;;;;;5117376;27;20066;-83
2022/11/30 02:45:47;;;;;;;58.90;27.23;;;6.50;99.90;;;;;;5117856;27;20087;-85
2022/11/30 02:48:14;;;;;;;57.30;28.10;;;6.50;99.90;;;;;;5117587;27;20443;-84
2022/11/30 02:50:45;;;;;;;58.80;27.77;;;6.60;99.90;;;;;;5100702;27;20623;-85
2022/11/30 02:53:10;;;;;;;54.03;26.75;;;6.50;99.90;;;;;;5100899;27;20086;-84
2022/11/30 02:55:36;;;;;;;58.35;26.02;;;6.60;99.90;;;;;;5083914;27;20089;-85
2022/11/30 02:58:02;;;;;;;58.88;28.58;;;6.60;99.90;;;;;;5117301;27;20047;-85
2022/11/30 03:00:27;;;;;;;54.90;26.38;;;6.60;99.90;;;;;;5117956;27;20043;-83
2022/11/30 03:02:54;;;;;;;54.53;28.60;;;6.60;99.90;;;;;;5100572;27;20046;-84
2022/11/30 03:05:19;;;;;;;55.65;27.92;;;6.70;99.90;;;;;;5100920;27;20050;-83
2022/11/30 03:07:45;;;;;;;53.97;27.52;;;6.60;99.90;;;;;;5100183;27;20166;-84
2022/11/30 03:10:11;;;;;;;56.80;27.75;;;6.40;99.90;;;;;;5100920;27;20476;-84
2022/11/30 03:12:36;;;;;;;54.25;27.17;;;6.80;99.90;;;;;;5139065;27;20031;-85
2022/11/30 03:15:03;;;;;;;54.75;26.48;;;6.70;99.90;;;;;;5104096;27;20049;-83
2022/11/30 03:17:28;;;;;;;53.50;25.92;;;6.70;99.90;;;;;;5121546;27;20046;-84
2022/11/30 03:19:54;;;;;;;58.03;28.15;;;7.00;99.90;;;;;;5087655;27;20439;-84
2022/11/30 03:22:20;;;;;;;52.53;25.67;;;7.40;99.90;;;;;;5120852;27;20484;-85
2022/11/30 03:24:45;;;;;;;50.97;26.15;;;7.10;99.90;;;;;;5121259;27;20095;-85
2022/11/30 03:27:11;;;;;;;47.95;26.33;;;6.90;99.90;;;;;;5120830;27;20125;-84
2022/11/30 03:29:38;;;;;;;56.63;26.30;;;6.70;99.90;;;;;;5087335;27;20051;-84
2022/11/30 03:32:04;;;;;;;52.15;25.30;;;6.60;99.90;;;;;;5137648;27;20050;-84
2022/11/30 03:34:29;;;;;;;54.38;24.95;;;6.70;99.90;;;;;;5121564;27;20043;-84
2022/11/30 03:36:55;;;;;;;46.35;24.02;;;6.80;99.90;;;;;;5104395;27;20135;-85
2022/11/30 03:39:21;;;;;;;51.95;26.48;;;6.90;99.90;;;;;;5103217;27;20038;-84
2022/11/30 03:41:46;;;;;;;50.08;23.75;;;6.80;99.90;;;;;;5103394;27;20550;-85
2022/11/30 03:44:12;;;;;;;43.90;19.95;;;6.80;99.90;;;;;;5103359;27;20042;-85
2022/11/30 03:46:38;;;;;;;54.35;22.50;;;6.90;99.90;;;;;;5121056;27;20038;-84
2022/11/30 03:49:04;;;;;;;50.05;24.98;;;7.00;99.90;;;;;;5138121;27;20505;-84
2022/11/30 03:51:29;;;;;;;49.83;23.38;;;7.00;99.90;;;;;;5138243;27;20054;-85
2022/11/30 03:53:55;;;;;;;47.40;22.63;;;7.50;99.90;;;;;;5138027;27;20042;-85
2022/11/30 03:56:21;;;;;;;55.90;25.15;;;6.90;99.90;;;;;;5103469;27;20470;-84
2022/11/30 03:58:46;;;;;;;49.35;23.27;;;6.90;99.90;;;;;;5120473;27;20043;-84
2022/11/30 04:01:14;;;;;;;50.97;23.80;;;6.80;99.90;;;;;;5120526;27;20047;-85
2022/11/30 04:03:39;;;;;;;47.28;23.17;;;6.80;99.90;;;;;;5087059;27;20129;-84
2022/11/30 04:06:06;;;;;;;48.63;21.00;;;6.90;99.90;;;;;;5086386;27;20130;-84
2022/11/30 04:08:32;;;;;;;51.47;23.08;;;6.90;99.90;;;;;;5086864;27;20050;-84
2022/11/30 04:10:58;;;;;;;56.53;23.92;;;7.30;99.90;;;;;;5103635;27;20039;-84
2022/11/30 04:13:24;;;;;;;49.90;23.42;;;6.80;99.90;;;;;;5086508;27;20094;-84
2022/11/30 04:15:50;;;;;;;55.20;23.33;;;7.90;99.90;;;;;;5086269;27;20448;-83
2022/11/30 04:18:16;;;;;;;56.33;22.77;;;6.80;99.90;;;;;;5102726;27;20042;-83
2022/11/30 04:20:42;;;;;;;46.65;20.98;;;6.90;99.90;;;;;;5086432;27;20534;-84
2022/11/30 04:23:08;;;;;;;57.55;24.65;;;6.80;99.90;;;;;;5102882;27;20038;-83
2022/11/30 04:25:36;;;;;;;46.45;21.13;;;6.70;99.90;;;;;;5102962;27;20057;-85
2022/11/30 04:28:01;;;;;;;60.22;24.90;;;6.90;99.90;;;;;;5086578;27;20041;-84
2022/11/30 04:30:27;;;;;;;59.47;23.65;;;6.70;99.90;;;;;;5119942;27;20046;-83
2022/11/30 04:32:53;;;;;;;53.88;23.50;;;8.10;99.90;;;;;;5102230;27;20054;-84
2022/11/30 04:35:18;;;;;;;56.63;24.75;;;6.80;99.90;;;;;;5098970;27;20083;-84
2022/11/30 04:37:44;;;;;;;51.13;21.90;;;6.80;99.90;;;;;;5116314;27;20072;-84
2022/11/30 04:40:10;;;;;;;51.67;23.02;;;8.10;99.90;;;;;;5081949;27;20054;-85
2022/11/30 04:42:36;;;;;;;42.28;16.00;;;6.90;99.90;;;;;;5095711;28;20063;-84
2022/11/30 04:45:01;;;;;;;55.55;22.67;;;6.90;99.90;;;;;;5095675;28;20051;-84
2022/11/30 04:47:27;;;;;;;54.90;24.20;;;6.80;99.90;;;;;;5095475;28;20039;-84
2022/11/30 04:49:52;;;;;;;43.83;19.25;;;6.80;99.90;;;;;;5095835;28;20560;-85
2022/11/30 04:52:18;;;;;;;61.28;25.23;;;6.90;99.90;;;;;;5112015;28;20350;-84
2022/11/30 04:54:44;;;;;;;65.80;25.40;;;6.80;99.90;;;;;;5078876;28;20103;-85
2022/11/30 04:57:10;;;;;;;59.00;26.33;;;6.70;99.90;;;;;;5078474;28;20051;-84
2022/11/30 04:59:35;;;;;;;66.20;27.08;;;6.90;99.90;;;;;;5078724;28;20116;-84
2022/11/30 05:02:01;;;;;;;64.97;25.67;;;6.80;99.90;;;;;;5095650;28;20384;-84
2022/11/30 05:04:27;;;;;;;55.88;23.67;;;6.80;99.90;;;;;;5094883;28;20063;-83
2022/11/30 05:06:52;;;;;;;64.70;27.25;;;7.00;99.90;;;;;;5095337;28;20494;-84
2022/11/30 05:09:18;;;;;;;65.07;24.27;;;7.70;99.90;;;;;;5078058;28;20120;-84
2022/11/30 05:11:45;;;;;;;67.60;27.52;;;6.90;99.90;;;;;;5094619;28;20094;-84
2022/11/30 05:14:11;;;;;;;67.70;24.38;;;7.00;99.90;;;;;;5078227;28;20078;-86
2022/11/30 05:16:37;;;;;;;72.60;27.40;;;6.90;99.90;;;;;;5094804;28;20047;-84
2022/11/30 05:19:02;;;;;;;62.60;24.05;;;6.70;99.90;;;;;;5111680;28;20043;-84
2022/11/30 05:21:28;;;;;;;75.70;26.20;;;6.70;99.90;;;;;;5094683;28;20059;-84
2022/11/30 05:23:54;;;;;;;67.65;25.00;;;6.60;99.90;;;;;;5111969;28;20043;-85
2022/11/30 05:26:19;;;;;;;69.80;23.98;;;6.50;99.90;;;;;;5111995;28;20074;-84
2022/11/30 05:28:45;;;;;;;70.43;22.15;;;7.70;99.90;;;;;;5078126;28;20051;-85
2022/11/30 05:31:11;;;;;;;63.00;24.05;;;6.70;99.90;;;;;;5094553;28;20047;-84
2022/11/30 05:33:36;;;;;;;67.22;22.67;;;6.70;99.90;;;;;;5093683;28;20510;-83
2022/11/30 05:36:02;;;;;;;62.17;23.55;;;7.10;99.90;;;;;;5095117;28;20039;-84
2022/11/30 05:38:28;;;;;;;62.55;21.42;;;6.70;99.90;;;;;;5094449;28;20050;-84
2022/11/30 05:41:02;;;;;;;66.03;23.25;;;7.00;99.90;;;;;;5061139;28;20065;-85
2022/11/30 05:43:28;;;;;;;52.50;17.90;;;6.60;99.90;;;;;;5093546;28;20051;-85
2022/11/30 05:46:01;;;;;;;73.22;25.48;;;6.60;99.90;;;;;;5060560;28;20047;-85
2022/11/30 05:48:27;;;;;;;62.13;22.15;;;6.50;99.90;;;;;;5094888;28;20140;-84
2022/11/30 05:50:53;;;;;;;71.40;23.08;;;6.80;99.90;;;;;;5094997;28;20063;-85
2022/11/30 05:53:18;;;;;;;63.03;24.23;;;6.70;99.90;;;;;;5060631;28;20480;-84
2022/11/30 05:55:44;;;;;;;66.43;26.10;;;6.90;99.90;;;;;;5094623;28;20403;-84
2022/11/30 05:58:10;;;;;;;70.75;25.17;;;7.40;99.90;;;;;;5078177;28;20502;-85
2022/11/30 06:00:35;;;;;;;64.65;24.80;;;6.70;99.90;;;;;;5060960;28;20631;-85
2022/11/30 06:03:01;;;;;;;67.03;25.13;;;6.40;99.90;;;;;;5094568;28;20052;-85
2022/11/30 06:05:27;;;;;;;57.33;22.77;;;6.40;99.90;;;;;;5111038;28;20055;-85
2022/11/30 06:07:53;;;;;;;53.25;22.77;;;6.40;99.90;;;;;;5094138;28;20109;-85
2022/11/30 06:10:18;;;;;;;52.47;20.23;;;7.90;99.90;;;;;;5093796;28;20051;-85
2022/11/30 06:12:44;;;;;;;57.28;23.85;;;6.50;99.90;;;;;;5077607;28;20073;-85
2022/11/30 06:15:10;;;;;;;55.30;23.88;;;6.40;99.90;;;;;;5077406;28;20043;-85
2022/11/30 06:17:36;;;;;;;61.90;23.00;;;6.80;99.90;;;;;;5093957;28;20307;-84
2022/11/30 06:20:06;;;;;;;57.58;24.80;;;6.30;99.90;;;;;;5094024;28;20051;-85
2022/11/30 06:22:32;;;;;;;57.38;21.38;;;6.30;99.90;;;;;;5077384;28;20052;-84
2022/11/30 06:24:58;;;;;;;59.28;23.75;;;6.40;99.90;;;;;;5094296;28;20043;-84
2022/11/30 06:27:23;;;;;;;62.58;23.95;;;6.40;99.90;;;;;;5076947;28;20051;-84
2022/11/30 06:29:49;;;;;;;60.80;23.35;;;6.40;99.90;;;;;;5111161;28;20047;-84
2022/11/30 06:32:15;;;;;;;61.45;22.88;;;6.30;99.90;;;;;;5110939;28;20036;-83
2022/11/30 06:34:40;;;;;;;55.28;23.08;;;6.70;99.90;;;;;;5093805;28;20139;-84
2022/11/30 06:37:06;;;;;;;50.60;21.20;;;6.40;99.90;;;;;;5096291;28;20062;-84
2022/11/30 06:39:31;;;;;;;50.85;21.85;;;6.50;99.90;;;;;;5116701;28;20103;-84
2022/11/30 06:41:57;;;;;;;42.70;20.92;;;6.50;99.90;;;;;;5098933;27;20058;-83
2022/11/30 06:44:23;;;;;;;42.72;18.58;;;6.40;99.90;;;;;;5100337;27;20047;-84
2022/11/30 06:46:48;;;;;;;39.50;18.45;;;6.50;99.90;;;;;;5103708;27;20517;-85
2022/11/30 06:49:14;;;;;;;38.22;18.50;;;6.60;99.90;;;;;;5121872;27;20050;-84
2022/11/30 06:51:41;;;;;;;32.80;17.30;;;6.60;99.90;;;;;;5121306;27;20045;-84
2022/11/30 06:54:06;;;;;;;31.40;15.05;;;6.60;99.90;;;;;;5137757;27;20102;-84
2022/11/30 06:56:32;;;;;;;29.40;15.40;;;6.70;99.90;;;;;;5122560;27;20129;-83
2022/11/30 06:58:58;;;;;;;31.63;18.00;;;6.70;99.90;;;;;;5121216;27;20049;-84
2022/11/30 07:01:23;;;;;;;29.83;16.70;;;6.60;99.90;;;;;;5103582;27;20063;-83
2022/11/30 07:03:49;;;;;;;27.92;14.77;;;6.50;99.90;;;;;;5120934;27;20042;-85
2022/11/30 07:06:15;;;;;;;29.70;16.05;;;6.60;99.90;;;;;;5105077;27;20043;-84
2022/11/30 07:08:41;;;;;;;26.85;14.32;;;6.50;99.90;;;;;;5138455;27;20062;-84
2022/11/30 07:11:06;;;;;;;27.27;14.45;;;6.60;99.90;;;;;;5103813;27;20049;-85
2022/11/30 07:13:32;;;;;;;27.88;14.98;;;6.50;99.90;;;;;;5086375;27;20042;-85
2022/11/30 07:15:58;;;;;;;23.92;14.57;;;8.00;99.90;;;;;;5121749;27;20534;-84
2022/11/30 07:18:23;;;;;;;27.35;15.15;;;6.50;99.90;;;;;;5103810;27;20074;-82
2022/11/30 07:20:49;;;;;;;27.52;15.15;;;6.90;99.90;;;;;;5103445;27;20402;-83
2022/11/30 07:26:06;;;;;;;31.35;17.55;;;6.40;99.90;;;;;;5117690;27;20043;-83
2022/11/30 07:28:39;;;;;;;28.73;16.35;;;6.30;99.90;;;;;;5084525;27;20043;-84
2022/11/30 07:31:17;;;;;;;30.00;15.73;;;6.30;99.90;;;;;;5101420;27;20058;-85
2022/11/30 07:33:43;;;;;;;29.85;16.50;;;6.40;99.90;;;;;;5100379;27;20046;-84
2022/11/30 07:36:10;;;;;;;28.48;15.32;;;6.30;99.90;;;;;;5100975;27;20047;-82
2022/11/30 07:38:35;;;;;;;25.45;15.57;;;6.40;99.90;;;;;;5100175;27;20502;-83
2022/11/30 07:41:01;;;;;;;29.33;16.92;;;6.50;99.90;;;;;;5100544;27;20050;-83
2022/11/30 07:43:27;;;;;;;25.33;15.88;;;6.30;99.90;;;;;;5082940;27;20051;-83
2022/11/30 07:45:53;;;;;;;31.25;15.95;;;6.30;99.90;;;;;;5100740;27;20444;-83
2022/11/30 07:48:19;;;;;;;22.23;14.40;;;6.50;99.90;;;;;;5083656;27;20043;-84
2022/11/30 07:50:45;;;;;;;24.73;14.07;;;6.80;99.90;;;;;;5099526;27;20392;-84
2022/11/30 07:53:12;;;;;;;23.65;14.50;;;6.50;99.90;;;;;;5082794;27;20061;-84
2022/11/30 07:55:38;;;;;;;24.98;14.90;;;6.70;99.90;;;;;;5099281;27;20045;-84
2022/11/30 07:58:04;;;;;;;23.42;14.27;;;6.40;99.90;;;;;;5082298;27;20457;-84
2022/11/30 08:00:29;;;;;;;23.35;14.85;;;6.70;99.90;;;;;;5081982;27;20039;-85
2022/11/30 08:02:55;;;;;;;22.02;14.77;;;6.40;99.90;;;;;;5116585;27;20043;-83
2022/11/30 08:05:22;;;;;;;24.02;15.48;;;6.50;99.90;;;;;;5099228;27;20059;-83
2022/11/30 08:07:51;;;;;;;23.92;15.70;;;7.10;99.90;;;;;;5116159;27;20058;-84
2022/11/30 08:10:18;;;;;;;23.63;15.60;;;6.40;99.90;;;;;;5082467;27;20051;-83
2022/11/30 08:12:44;;;;;;;26.75;16.85;;;6.40;99.90;;;;;;5098795;27;20047;-83
2022/11/30 08:15:10;;;;;;;24.73;15.98;;;6.30;99.90;;;;;;5116097;27;20035;-84
2022/11/30 08:17:35;;;;;;;25.52;16.80;;;6.30;99.90;;;;;;5115882;27;20086;-84
2022/11/30 08:20:01;;;;;;;24.95;14.38;;;7.40;99.90;;;;;;5116298;27;20141;-84
2022/11/30 08:22:27;;;;;;;23.52;14.57;;;6.30;99.90;;;;;;5098624;27;20391;-84
2022/11/30 08:24:52;;;;;;;23.60;15.45;;;6.40;99.90;;;;;;5116251;27;20051;-84
2022/11/30 08:27:18;;;;;;;23.17;14.40;;;7.20;99.90;;;;;;5099405;27;20043;-84
2022/11/30 08:29:44;;;;;;;22.98;15.10;;;6.40;99.90;;;;;;5098804;27;20167;-83
2022/11/30 08:32:10;;;;;;;24.45;15.43;;;6.60;99.90;;;;;;5098906;27;20487;-83
2022/11/30 08:34:35;;;;;;;20.27;10.63;;;6.60;99.90;;;;;;5115533;27;20091;-82
2022/11/30 08:37:02;;;;;;;24.17;14.02;;;6.60;99.90;;;;;;5081874;27;20057;-82
2022/11/30 08:39:30;;;;;;;23.35;14.77;;;6.60;99.90;;;;;;5098628;27;20054;-83
2022/11/30 08:41:56;;;;;;;23.67;15.50;;;6.60;99.90;;;;;;5115352;27;20047;-84
2022/11/30 08:44:22;;;;;;;26.23;16.23;;;6.50;99.90;;;;;;5111803;28;20056;-84
2022/11/30 08:46:47;;;;;;;23.00;15.95;;;6.40;99.90;;;;;;5112069;28;20075;-83
2022/11/30 08:49:13;;;;;;;26.67;16.13;;;6.30;99.90;;;;;;5095017;28;20392;-84
2022/11/30 08:51:39;;;;;;;28.48;17.13;;;6.40;99.90;;;;;;5094868;28;20039;-83
2022/11/30 08:54:05;;;;;;;26.15;16.15;;;6.20;99.90;;;;;;5112005;28;20047;-83
2022/11/30 08:56:30;;;;;;;27.45;17.23;;;6.30;99.90;;;;;;5095014;28;20100;-83
2022/11/30 08:58:56;;;;;;;21.88;13.43;;;6.30;99.90;;;;;;5077976;28;20113;-84
2022/11/30 09:01:23;;;;;;;26.98;18.00;;;6.40;99.90;;;;;;5111948;28;20138;-84
2022/11/30 09:03:52;;;;;;;26.48;15.75;;;6.30;99.90;;;;;;5095011;28;20124;-83
2022/11/30 09:06:19;;;;;;;24.85;15.95;;;6.30;99.90;;;;;;5095203;28;20047;-83
2022/11/30 09:08:45;;;;;;;27.48;17.85;;;6.20;99.90;;;;;;5076639;28;20048;-84
2022/11/30 09:11:19;;;;;;;28.20;16.60;;;6.20;99.90;;;;;;5111930;28;20055;-84
2022/11/30 09:13:45;;;;;;;27.17;16.95;;;6.20;99.90;;;;;;5077484;28;20097;-84
2022/11/30 09:16:11;;;;;;;24.80;15.75;;;6.20;99.90;;;;;;5094686;28;20051;-83
2022/11/30 09:18:37;;;;;;;26.52;16.42;;;6.40;99.90;;;;;;5078221;28;20391;-82
2022/11/30 09:21:07;;;;;;;25.85;15.95;;;6.40;99.90;;;;;;5097201;28;20555;-82
2022/11/30 09:23:33;;;;;;;27.15;16.83;;;6.40;99.90;;;;;;5097625;28;20081;-83
2022/11/30 09:26:00;;;;;;;29.15;17.92;;;6.30;99.90;;;;;;5097805;27;20086;-83
2022/11/30 09:28:26;;;;;;;28.75;16.85;;;6.30;99.90;;;;;;5113789;27;20501;-83
2022/11/30 09:30:52;;;;;;;29.58;17.33;;;6.40;99.90;;;;;;5113797;27;20114;-84
2022/11/30 09:33:18;;;;;;;28.27;15.60;;;6.40;99.90;;;;;;5097200;27;20095;-84
2022/11/30 09:35:44;;;;;;;17.08;10.75;;;6.60;99.90;;;;;;5113529;27;20047;-84
2022/11/30 09:38:09;;;;;;;29.15;16.98;;;6.60;99.90;;;;;;5096749;27;20050;-83
2022/11/30 09:40:35;;;;;;;22.98;14.63;;;6.50;99.90;;;;;;5097131;27;20043;-83
2022/11/30 09:43:03;;;;;;;29.50;17.45;;;6.70;99.90;;;;;;5096902;27;20154;-83
2022/11/30 09:45:30;;;;;;;24.38;15.18;;;6.60;99.90;;;;;;5097893;27;20047;-84
2022/11/30 09:48:30;;;;;;;29.13;17.38;;;7.20;99.90;;;;;;5079952;27;20130;-84
2022/11/30 09:50:57;;;;;;;27.13;16.92;;;6.60;99.90;;;;;;5116735;27;20395;-84
2022/11/30 09:53:32;;;;;;;31.70;18.60;;;6.70;99.90;;;;;;5080687;27;20051;-84
2022/11/30 09:55:58;;;;;;;28.42;15.77;;;6.50;99.90;;;;;;5095926;27;20083;-84
2022/11/30 09:58:27;;;;;;;27.98;17.38;;;6.70;99.90;;;;;;5080163;27;20078;-83
2022/11/30 10:00:52;;;;;;;27.95;14.80;;;7.00;99.90;;;;;;5096376;27;20130;-83
2022/11/30 10:03:18;;;;;;;28.50;17.17;;;7.30;99.90;;;;;;5113781;27;20134;-83
2022/11/30 10:06:06;;;;;;;28.45;17.02;;;6.90;99.90;;;;;;5096533;27;20039;-86
2022/11/30 10:09:01;;;;;;;30.13;16.77;;;7.00;99.90;;;;;;5113170;27;20047;-83
2022/11/30 10:11:48;;;;;;;25.60;13.73;;;7.00;99.90;;;;;;5096359;27;20416;-84
2022/11/30 10:14:49;;;;;;;29.70;17.73;;;7.10;99.90;;;;;;5130714;27;20051;-84
2022/11/30 10:17:23;;;;;;;29.60;17.40;;;7.20;99.90;;;;;;5097276;27;20063;-83
2022/11/30 10:19:55;;;;;;;31.35;17.27;;;7.10;99.90;;;;;;5130169;27;20090;-83
2022/11/30 10:23:14;;;;;;;30.25;17.77;;;7.10;99.90;;;;;;5130672;27;20043;-83
2022/11/30 10:25:56;;;;;;;30.33;18.55;;;7.00;99.90;;;;;;5015315;28;20107;-84
2022/11/30 10:28:42;;;;;;;32.13;17.88;;;7.00;99.90;;;;;;5016217;28;20385;-83
2022/11/30 10:31:10;;;;;;;36.25;16.90;;;7.00;99.90;;;;;;5094211;27;20050;-82
2022/11/30 10:33:56;;;;;;;31.08;15.85;;;7.00;99.90;;;;;;5096322;28;20562;-83
2022/11/30 10:36:39;;;;;;;36.38;18.38;;;7.00;99.90;;;;;;5095776;28;20082;-84
2022/11/30 10:39:14;;;;;;;35.50;18.88;;;7.00;99.90;;;;;;5087395;28;20040;-84
2022/11/30 10:41:43;;;;;;;39.78;20.77;;;6.80;99.90;;;;;;5113080;28;20542;-84
2022/11/30 10:44:18;;;;;;;39.42;19.83;;;6.90;99.90;;;;;;5067428;28;20059;-83
2022/11/30 10:46:55;;;;;;;39.95;21.33;;;6.90;99.90;;;;;;5096621;28;20051;-83
2022/11/30 10:49:22;;;;;;;39.40;22.73;;;7.00;99.90;;;;;;5096629;28;20054;-83
2022/11/30 10:51:51;;;;;;;38.38;19.13;;;6.90;99.90;;;;;;5113140;28;20039;-84
2022/11/30 10:54:19;;;;;;;42.03;23.10;;;6.90;99.90;;;;;;5113141;28;20130;-84
2022/11/30 10:56:45;;;;;;;48.08;23.85;;;6.80;99.90;;;;;;5095883;28;20159;-84
2022/11/30 10:59:32;;;;;;;50.33;24.05;;;6.80;99.90;;;;;;5095112;28;20039;-84
2022/11/30 11:01:57;;;;;;;48.65;23.50;;;6.90;99.90;;;;;;5113026;28;20039;-83
2022/11/30 11:04:26;;;;;;;49.47;24.48;;;6.90;99.90;;;;;;5096495;28;20514;-84
2022/11/30 11:06:56;;;;;;;47.65;24.58;;;6.80;99.90;;;;;;5130062;28;20051;-84
2022/11/30 11:09:31;;;;;;;49.05;24.13;;;6.90;99.90;;;;;;5113013;28;20225;-84
2022/11/30 11:12:01;;;;;;;53.17;26.75;;;6.90;99.90;;;;;;5097401;28;20055;-84
2022/11/30 11:14:27;;;;;;;44.10;21.08;;;6.90;99.90;;;;;;5112062;28;20051;-85
2022/11/30 11:17:04;;;;;;;39.15;20.02;;;7.10;99.90;;;;;;5111985;28;20485;-86
2022/11/30 11:19:32;;;;;;;43.30;25.23;;;7.10;99.90;;;;;;5111068;28;20122;-85
2022/11/30 11:21:58;;;;;;;32.90;16.23;;;7.10;99.90;;;;;;5128964;28;20110;-85
2022/11/30 11:24:25;;;;;;;50.97;24.92;;;7.20;99.90;;;;;;5079005;28;20380;-84
2022/11/30 11:26:51;;;;;;;44.63;20.20;;;7.10;99.90;;;;;;5096067;28;20042;-84
2022/11/30 11:29:33;;;;;;;51.55;25.77;;;7.00;99.90;;;;;;5078558;28;20037;-84
2022/11/30 11:32:17;;;;;;;51.45;24.27;;;6.90;99.90;;;;;;5081893;27;20043;-84
2022/11/30 11:34:43;;;;;;;;;;;7.00;99.90;;;;;;5118468;27;20132;-85
2022/11/30 11:37:32;;;;;;;46.40;22.13;;;6.90;99.90;;;;;;5116221;27;19977;-84
2022/11/30 11:40:02;;;;;;;46.10;23.42;;;5.60;99.90;;;;;;5087870;28;20082;-83
2022/11/30 11:42:40;;;;;;;40.45;21.90;;;6.80;99.90;;;;;;5104581;27;20047;-84
2022/11/30 11:45:21;;;;;;;42.60;23.10;;;7.00;99.90;;;;;;5100010;27;20055;-83
2022/11/30 11:47:48;;;;;;;47.83;22.02;;;6.80;99.90;;;;;;5084116;27;20054;-84
2022/11/30 11:50:38;;;;;;;48.80;25.38;;;7.80;99.90;;;;;;5099343;27;20051;-84
2022/11/30 11:53:23;;;;;;;43.05;21.63;;;6.70;99.90;;;;;;5116670;27;20074;-84
2022/11/30 11:55:55;;;;;;;45.83;24.48;;;6.80;99.90;;;;;;5099422;27;20111;-83
2022/11/30 11:58:38;;;;;;;42.90;20.88;;;6.80;99.90;;;;;;5081588;27;20051;-83
2022/11/30 12:01:07;;;;;;;41.03;20.20;;;6.90;99.90;;;;;;5099941;27;20042;-83
2022/11/30 12:03:56;;;;;;;41.53;23.35;;;7.00;99.90;;;;;;5098520;27;20586;-85
2022/11/30 12:06:22;;;;;;;46.10;23.33;;;6.90;99.90;;;;;;5098108;27;20058;-84
2022/11/30 12:08:49;;;;;;;34.78;15.15;;;6.80;99.90;;;;;;5099888;27;20044;-85
2022/11/30 12:11:27;;;;;;;52.72;24.95;;;8.30;99.90;;;;;;5098003;27;20100;-85
2022/11/30 12:13:52;;;;;;;57.08;26.52;;;7.00;99.90;;;;;;5098919;27;20051;-85
2022/11/30 12:16:39;;;;;;;60.67;27.45;;;7.10;99.90;;;;;;5114666;27;20099;-84
2022/11/30 12:19:04;;;;;;;51.67;23.13;;;7.00;99.90;;;;;;5099819;27;20043;-85
2022/11/30 12:21:42;;;;;;;55.88;24.40;;;7.00;99.90;;;;;;5124281;27;20115;-84
2022/11/30 12:24:19;;;;;;;54.25;24.67;;;7.00;99.90;;;;;;5130160;27;20047;-82
2022/11/30 12:27:11;;;;;;;60.42;27.55;;;6.90;99.90;;;;;;5099070;27;20051;-84
2022/11/30 12:29:49;;;;;;;39.20;17.65;;;6.90;99.90;;;;;;5111226;27;20058;-83
2022/11/30 12:32:20;;;;;;;57.75;25.20;;;7.20;99.90;;;;;;5115281;27;20043;-83
2022/11/30 12:35:13;;;;;;;47.67;18.67;;;7.20;99.90;;;;;;5133028;27;20047;-83
2022/11/30 12:38:04;;;;;;;61.58;27.42;;;7.10;99.90;;;;;;5129971;27;20039;-84
2022/11/30 12:40:39;;;;;;;38.03;15.27;;;7.00;99.90;;;;;;5131344;27;20051;-84
2022/11/30 12:43:33;;;;;;;39.50;18.42;;;7.20;99.90;;;;;;5133404;27;20048;-85
2022/11/30 12:46:14;;;;;;;60.33;29.48;;;7.10;99.90;;;;;;5117618;27;20557;-83
2022/11/30 12:49:07;;;;;;;56.42;22.58;;;6.90;99.90;;;;;;5106952;27;20047;-83